sensor_id;sensor_type;location;lat;lon;timestamp;pressure;altitude;pressure_sealevel;temperature;humidity
5350;BME280;2697;42.144;24.794;2023-05-02T00:02:12;35431.38;;;11.77;100.00
5350;BME280;2697;42.144;24.794;2023-05-02T00:04:38;32714.91;;;11.70;100.00
5350;BME280;2697;42.144;24.794;2023-05-02T00:07:04;32382.94;;;11.83;100.00
5350;BME280;2697;42.144;24.794;2023-05-02T00:09:29;41205.88;;;11.82;100.00
5350;BME280;2697;42.144;24.794;2023-05-02T00:11:55;41196.38;;;11.68;100.00
5350;BME280;2697;42.144;24.794;2023-05-02T00:14:20;37456.97;;;11.60;100.00
5350;BME280;2697;42.144;24.794;2023-05-02T00:16:45;31341.28;;;11.36;100.00
5350;BME280;2697;42.144;24.794;2023-05-02T00:19:11;29313.97;;;11.44;100.00
5350;BME280;2697;42.144;24.794;2023-05-02T00:21:36;29311.47;;;11.39;100.00
5350;BME280;2697;42.144;24.794;2023-05-02T00:24:01;28291.00;;;11.28;100.00
5350;BME280;2697;42.144;24.794;2023-05-02T00:26:27;36432.94;;;11.50;100.00
5350;BME280;2697;42.144;24.794;2023-05-02T00:28:53;39476.09;;;11.34;100.00
5350;BME280;2697;42.144;24.794;2023-05-02T00:31:18;39473.75;;;11.31;100.00
5350;BME280;2697;42.144;24.794;2023-05-02T00:33:43;40836.13;;;11.38;100.00
5350;BME280;2697;42.144;24.794;2023-05-02T00:36:17;40484.22;;;11.20;100.00
5350;BME280;2697;42.144;24.794;2023-05-02T00:38:42;36065.03;;;11.03;100.00
5350;BME280;2697;42.144;24.794;2023-05-02T00:41:08;32674.72;;;10.97;100.00
5350;BME280;2697;42.144;24.794;2023-05-02T00:43:33;31990.81;;;10.84;100.00
5350;BME280;2697;42.144;24.794;2023-05-02T00:45:59;27587.91;;;10.72;100.00
5350;BME280;2697;42.144;24.794;2023-05-02T00:48:25;22518.56;;;10.64;100.00
5350;BME280;2697;42.144;24.794;2023-05-02T00:50:51;19141.81;;;10.53;100.00
5350;BME280;2697;42.144;24.794;2023-05-02T00:53:16;17791.63;;;10.47;100.00
5350;BME280;2697;42.144;24.794;2023-05-02T00:55:42;17454.34;;;10.46;100.00
5350;BME280;2697;42.144;24.794;2023-05-02T00:58:13;17454.03;;;10.45;100.00
5350;BME280;2697;42.144;24.794;2023-05-02T01:00:50;16104.63;;;10.39;100.00
5350;BME280;2697;42.144;24.794;2023-05-02T01:06:27;14418.19;;;10.27;100.00
5350;BME280;2697;42.144;24.794;2023-05-02T01:11:47;12734.94;;;10.24;100.00
5350;BME280;2697;42.144;24.794;2023-05-02T01:14:16;12399.00;;;10.26;100.00
5350;BME280;2697;42.144;24.794;2023-05-02T01:16:44;11723.56;;;10.14;100.00
5350;BME280;2697;42.144;24.794;2023-05-02T01:19:31;8695.97;;;9.99;100.00
5350;BME280;2697;42.144;24.794;2023-05-02T01:22:02;6680.63;;;9.97;100.00
5350;BME280;2697;42.144;24.794;2023-05-02T01:24:31;6010.09;;;10.05;100.00
5350;BME280;2697;42.144;24.794;2023-05-02T01:27:17;8360.53;;;10.03;100.00
5350;BME280;2697;42.144;24.794;2023-05-02T01:29:49;8696.31;;;10.02;100.00
5350;BME280;2697;42.144;24.794;2023-05-02T01:32:15;8360.06;;;9.99;100.00
5350;BME280;2697;42.144;24.794;2023-05-02T01:34:42;9031.06;;;9.94;100.00
5350;BME280;2697;42.144;24.794;2023-05-02T01:37:11;9366.84;;;9.93;100.00
5350;BME280;2697;42.144;24.794;2023-05-02T01:39:39;10035.47;;;9.75;100.00
5350;BME280;2697;42.144;24.794;2023-05-02T01:42:05;8691.06;;;9.69;100.00
5350;BME280;2697;42.144;24.794;2023-05-02T01:44:31;6675.41;;;9.57;100.00
5350;BME280;2697;42.144;24.794;2023-05-02T01:47:00;3321.69;;;9.58;100.00
5350;BME280;2697;42.144;24.794;2023-05-02T01:49:28;640.59;;;9.55;100.00
5350;BME280;2697;42.144;24.794;2023-05-02T01:51:56;-364.28;;;9.52;100.00
5350;BME280;2697;42.144;24.794;2023-05-02T01:54:27;-1034.00;;;9.51;100.00
5350;BME280;2697;42.144;24.794;2023-05-02T01:56:53;-2038.22;;;9.41;100.00
5350;BME280;2697;42.144;24.794;2023-05-02T01:59:21;-2038.13;;;9.36;100.00
5350;BME280;2697;42.144;24.794;2023-05-02T02:01:48;-2037.94;;;9.21;100.00
5350;BME280;2697;42.144;24.794;2023-05-02T02:04:16;-1703.25;;;9.11;100.00
5350;BME280;2697;42.144;24.794;2023-05-02T02:06:47;-4379.47;;;9.25;100.00
5350;BME280;2697;42.144;24.794;2023-05-02T02:09:15;-6718.59;;;9.15;100.00
5350;BME280;2697;42.144;24.794;2023-05-02T02:11:45;-8055.69;;;9.22;100.00
5350;BME280;2697;42.144;24.794;2023-05-02T02:14:16;-7387.94;;;9.26;100.00
5350;BME280;2697;42.144;24.794;2023-05-02T02:16:43;-6385.31;;;9.25;100.00
5350;BME280;2697;42.144;24.794;2023-05-02T02:19:11;-6050.22;;;9.14;100.00
5350;BME280;2697;42.144;24.794;2023-05-02T02:21:39;-5046.78;;;9.03;100.00
5350;BME280;2697;42.144;24.794;2023-05-02T02:24:06;-5046.09;;;8.92;100.00
5350;BME280;2697;42.144;24.794;2023-05-02T02:26:33;-4712.19;;;8.96;100.00
5350;BME280;2697;42.144;24.794;2023-05-02T02:28:59;-4378.22;;;9.01;100.00
5350;BME280;2697;42.144;24.794;2023-05-02T02:31:32;-3709.78;;;9.05;100.00
5350;BME280;2697;42.144;24.794;2023-05-02T02:33:58;-2706.50;;;9.00;100.00
5350;BME280;2697;42.144;24.794;2023-05-02T02:37:11;-1703.19;;;9.02;100.00
5350;BME280;2697;42.144;24.794;2023-05-02T02:39:50;-30.44;;;8.96;100.00
5350;BME280;2697;42.144;24.794;2023-05-02T02:48:18;638.06;;;8.69;100.00
5350;BME280;2697;42.144;24.794;2023-05-02T02:51:06;-31.06;;;8.62;100.00
5350;BME280;2697;42.144;24.794;2023-05-02T02:56:27;-699.94;;;8.53;100.00
5350;BME280;2697;42.144;24.794;2023-05-02T02:59:03;-699.84;;;8.63;100.00
5350;BME280;2697;42.144;24.794;2023-05-02T03:01:30;303.38;;;8.61;100.00
5350;BME280;2697;42.144;24.794;2023-05-02T03:03:57;637.69;;;8.56;100.00
5350;BME280;2697;42.144;24.794;2023-05-02T03:06:22;-30.94;;;8.69;100.00
5350;BME280;2697;42.144;24.794;2023-05-02T03:08:48;638.16;;;8.72;100.00
5350;BME280;2697;42.144;24.794;2023-05-02T03:11:14;638.22;;;8.74;100.00
5350;BME280;2697;42.144;24.794;2023-05-02T03:13:39;1641.63;;;8.66;100.00
5350;BME280;2697;42.144;24.794;2023-05-02T03:16:33;303.53;;;8.68;100.00
5350;BME280;2697;42.144;24.794;2023-05-02T03:18:59;972.66;;;8.70;100.00
5350;BME280;2697;42.144;24.794;2023-05-02T03:21:25;1641.44;;;8.62;100.00
5350;BME280;2697;42.144;24.794;2023-05-02T03:23:50;637.84;;;8.62;100.00
5350;BME280;2697;42.144;24.794;2023-05-02T03:26:16;-365.66;;;8.47;100.00
5350;BME280;2697;42.144;24.794;2023-05-02T03:28:41;-2371.06;;;8.48;100.00
5350;BME280;2697;42.144;24.794;2023-05-02T03:31:11;-4041.75;;;8.54;100.00
5350;BME280;2697;42.144;24.794;2023-05-02T03:33:36;-6381.91;;;8.85;100.00
5350;BME280;2697;42.144;24.794;2023-05-02T03:36:01;-7054.50;;;9.34;100.00
5350;BME280;2697;42.144;24.794;2023-05-02T03:38:28;-5719.72;;;9.65;100.00
5350;BME280;2697;42.144;24.794;2023-05-02T03:40:56;-1704.28;;;10.35;100.00
5350;BME280;2697;42.144;24.794;2023-05-02T03:43:22;7360.91;;;10.60;100.00
5350;BME280;2697;42.144;24.794;2023-05-02T03:45:47;13754.34;;;10.66;100.00
5350;BME280;2697;42.144;24.794;2023-05-02T03:48:13;19492.66;;;10.94;100.00
5350;BME280;2697;42.144;24.794;2023-05-02T03:50:38;57214.13;;;11.90;100.00
5350;BME280;2697;42.144;24.794;2023-05-02T03:53:03;127854.88;;;12.30;100.00
5350;BME280;2697;42.144;24.794;2023-05-02T03:55:29;155788.16;;;12.48;100.00
5350;BME280;2697;42.144;24.794;2023-05-02T03:57:55;156027.00;;;13.40;100.00
5350;BME280;2697;42.144;24.794;2023-05-02T04:00:21;155913.44;;;12.97;100.00
5350;BME280;2697;42.144;24.794;2023-05-02T04:02:46;156034.88;;;13.44;100.00
5350;BME280;2697;42.144;24.794;2023-05-02T04:05:12;156005.88;;;13.32;100.00
5350;BME280;2697;42.144;24.794;2023-05-02T04:07:37;156190.63;;;14.04;100.00
5350;BME280;2697;42.144;24.794;2023-05-02T04:10:03;156219.72;;;14.15;100.00
5350;BME280;2697;42.144;24.794;2023-05-02T04:12:28;156215.72;;;14.13;100.00
5350;BME280;2697;42.144;24.794;2023-05-02T04:14:54;156228.94;;;14.18;100.00
5350;BME280;2697;42.144;24.794;2023-05-02T04:17:20;156261.94;;;14.31;100.00
5350;BME280;2697;42.144;24.794;2023-05-02T04:19:45;156219.72;;;14.15;100.00
5350;BME280;2697;42.144;24.794;2023-05-02T04:22:10;156403.31;;;14.86;100.00
5350;BME280;2697;42.144;24.794;2023-05-02T04:24:36;156538.13;;;15.37;100.00
5350;BME280;2697;42.144;24.794;2023-05-02T04:27:01;156468.09;;;15.10;100.00
5350;BME280;2697;42.144;24.794;2023-05-02T04:29:27;156375.59;;;14.75;100.00
5350;BME280;2697;42.144;24.794;2023-05-02T04:31:52;156513.03;;;15.28;100.00
5350;BME280;2697;42.144;24.794;2023-05-02T04:34:18;156761.59;;;16.23;100.00
5350;BME280;2697;42.144;24.794;2023-05-02T04:36:44;156723.22;;;16.09;98.21
5350;BME280;2697;42.144;24.794;2023-05-02T04:39:10;156661.13;;;15.85;100.00
5350;BME280;2697;42.144;24.794;2023-05-02T04:41:36;156638.63;;;15.76;100.00
5350;BME280;2697;42.144;24.794;2023-05-02T04:44:02;156485.28;;;15.17;96.52
5350;BME280;2697;42.144;24.794;2023-05-02T04:46:28;156490.56;;;15.19;100.00
5350;BME280;2697;42.144;24.794;2023-05-02T04:48:53;156559.28;;;15.46;92.69
5350;BME280;2697;42.144;24.794;2023-05-02T04:51:18;156556.59;;;15.45;90.30
5350;BME280;2697;42.144;24.794;2023-05-02T04:53:44;156507.69;;;15.26;93.85
5350;BME280;2697;42.144;24.794;2023-05-02T04:56:09;156687.56;;;15.95;82.81
5350;BME280;2697;42.144;24.794;2023-05-02T04:58:35;156923.06;;;16.86;79.18
5350;BME280;2697;42.144;24.794;2023-05-02T05:01:01;156749.66;;;16.19;81.73
5350;BME280;2697;42.144;24.794;2023-05-02T05:03:26;156732.53;;;16.12;84.47
5350;BME280;2697;42.144;24.794;2023-05-02T05:05:54;156964.03;;;17.01;77.80
5350;BME280;2697;42.144;24.794;2023-05-02T05:08:20;156743.06;;;16.16;80.37
5350;BME280;2697;42.144;24.794;2023-05-02T05:10:45;156669.03;;;15.88;83.35
5350;BME280;2697;42.144;24.794;2023-05-02T05:13:11;156749.66;;;16.19;82.87
5350;BME280;2697;42.144;24.794;2023-05-02T05:15:38;156737.78;;;16.14;85.77
5350;BME280;2697;42.144;24.794;2023-05-02T05:18:04;156629.34;;;15.73;90.79
5350;BME280;2697;42.144;24.794;2023-05-02T05:20:29;156831.72;;;16.50;86.86
5350;BME280;2697;42.144;24.794;2023-05-02T05:22:55;156596.28;;;15.60;93.28
5350;BME280;2697;42.144;24.794;2023-05-02T05:25:21;156576.44;;;15.52;93.74
5350;BME280;2697;42.144;24.794;2023-05-02T05:27:46;156821.09;;;16.46;88.76
5350;BME280;2697;42.144;24.794;2023-05-02T05:30:12;156912.44;;;16.81;80.81
5350;BME280;2697;42.144;24.794;2023-05-02T05:32:37;156817.13;;;16.45;85.82
5350;BME280;2697;42.144;24.794;2023-05-02T05:35:03;156884.66;;;16.71;82.80
5350;BME280;2697;42.144;24.794;2023-05-02T05:37:29;156733.84;;;16.13;85.00
5350;BME280;2697;42.144;24.794;2023-05-02T05:39:54;156706.06;;;16.02;87.41
5350;BME280;2697;42.144;24.794;2023-05-02T05:42:20;156719.28;;;16.07;88.27
5350;BME280;2697;42.144;24.794;2023-05-02T05:44:45;156758.97;;;16.22;90.98
5350;BME280;2697;42.144;24.794;2023-05-02T05:47:10;156966.69;;;17.02;85.75
5350;BME280;2697;42.144;24.794;2023-05-02T05:49:36;156850.25;;;16.58;82.63
5350;BME280;2697;42.144;24.794;2023-05-02T05:52:01;157050.09;;;17.34;82.05
5350;BME280;2697;42.144;24.794;2023-05-02T05:54:27;157190.47;;;17.88;78.31
5350;BME280;2697;42.144;24.794;2023-05-02T05:56:52;157198.41;;;17.91;79.48
5350;BME280;2697;42.144;24.794;2023-05-02T05:59:18;157254.00;;;18.13;74.16
5350;BME280;2697;42.144;24.794;2023-05-02T06:01:43;157087.13;;;17.49;74.71
5350;BME280;2697;42.144;24.794;2023-05-02T06:04:09;157101.69;;;17.54;71.13
5350;BME280;2697;42.144;24.794;2023-05-02T06:06:34;156999.78;;;17.15;74.02
5350;BME280;2697;42.144;24.794;2023-05-02T06:09:00;157206.31;;;17.94;69.24
5350;BME280;2697;42.144;24.794;2023-05-02T06:11:25;157048.75;;;17.34;72.13
5350;BME280;2697;42.144;24.794;2023-05-02T06:13:51;157232.81;;;18.05;67.62
5350;BME280;2697;42.144;24.794;2023-05-02T06:16:17;157333.50;;;18.43;65.92
5350;BME280;2697;42.144;24.794;2023-05-02T06:18:43;157630.44;;;19.57;60.47
5350;BME280;2697;42.144;24.794;2023-05-02T06:21:10;157552.19;;;19.27;59.06
5350;BME280;2697;42.144;24.794;2023-05-02T06:23:36;157488.56;;;19.03;60.89
5350;BME280;2697;42.144;24.794;2023-05-02T06:26:02;157309.66;;;18.34;65.75
5350;BME280;2697;42.144;24.794;2023-05-02T06:28:28;157341.44;;;18.46;64.71
5350;BME280;2697;42.144;24.794;2023-05-02T06:31:01;157414.34;;;18.74;64.02
5350;BME280;2697;42.144;24.794;2023-05-02T06:33:31;157370.56;;;18.58;64.07
5350;BME280;2697;42.144;24.794;2023-05-02T06:35:58;157238.13;;;18.07;65.75
5350;BME280;2697;42.144;24.794;2023-05-02T06:38:24;157639.69;;;19.61;60.19
5350;BME280;2697;42.144;24.794;2023-05-02T06:40:49;157378.50;;;18.61;61.89
5350;BME280;2697;42.144;24.794;2023-05-02T06:43:16;157322.88;;;18.39;63.14
5350;BME280;2697;42.144;24.794;2023-05-02T06:45:41;157573.34;;;19.35;61.45
5350;BME280;2697;42.144;24.794;2023-05-02T06:48:07;157850.56;;;20.42;56.75
5350;BME280;2697;42.144;24.794;2023-05-02T06:50:33;157427.56;;;18.79;60.60
5350;BME280;2697;42.144;24.794;2023-05-02T06:52:59;157332.19;;;18.43;63.77
5350;BME280;2697;42.144;24.794;2023-05-02T06:55:25;157625.09;;;19.55;61.06
5350;BME280;2697;42.144;24.794;2023-05-02T06:57:51;157833.31;;;20.35;58.09
5350;BME280;2697;42.144;24.794;2023-05-02T07:00:17;157861.22;;;20.46;54.48
5350;BME280;2697;42.144;24.794;2023-05-02T07:02:44;157663.56;;;19.70;57.62
5350;BME280;2697;42.144;24.794;2023-05-02T07:05:10;157914.31;;;20.66;53.95
5350;BME280;2697;42.144;24.794;2023-05-02T07:07:35;157958.06;;;20.83;52.18
5350;BME280;2697;42.144;24.794;2023-05-02T07:10:01;157597.22;;;19.45;55.60
5350;BME280;2697;42.144;24.794;2023-05-02T07:12:26;157752.41;;;20.04;52.33
5350;BME280;2697;42.144;24.794;2023-05-02T07:14:52;157546.84;;;19.25;55.38
5350;BME280;2697;42.144;24.794;2023-05-02T07:17:18;157415.69;;;18.75;55.22
5350;BME280;2697;42.144;24.794;2023-05-02T07:19:43;157321.56;;;18.39;58.68
5350;BME280;2697;42.144;24.794;2023-05-02T07:22:09;157101.69;;;17.54;60.93
5350;BME280;2697;42.144;24.794;2023-05-02T07:24:34;157297.72;;;18.30;60.97
5350;BME280;2697;42.144;24.794;2023-05-02T07:26:59;157087.13;;;17.49;62.57
5350;BME280;2697;42.144;24.794;2023-05-02T07:29:25;157264.63;;;18.17;65.15
5350;BME280;2697;42.144;24.794;2023-05-02T07:31:51;157224.88;;;18.02;63.12
5350;BME280;2697;42.144;24.794;2023-05-02T07:34:16;157383.84;;;18.63;60.27
5350;BME280;2697;42.144;24.794;2023-05-02T07:36:41;157440.84;;;18.85;58.95
5350;BME280;2697;42.144;24.794;2023-05-02T07:39:07;157519.03;;;19.15;58.00
5350;BME280;2697;42.144;24.794;2023-05-02T07:41:32;157529.66;;;19.19;59.11
5350;BME280;2697;42.144;24.794;2023-05-02T07:43:58;157476.59;;;18.98;56.06
5350;BME280;2697;42.144;24.794;2023-05-02T07:46:23;157462.06;;;18.93;53.47
5350;BME280;2697;42.144;24.794;2023-05-02T07:48:49;157375.84;;;18.60;55.72
5350;BME280;2697;42.144;24.794;2023-05-02T07:51:14;157386.47;;;18.64;51.84
5350;BME280;2697;42.144;24.794;2023-05-02T07:53:40;157450.09;;;18.88;54.27
5350;BME280;2697;42.144;24.794;2023-05-02T07:56:06;157442.16;;;18.85;52.00
5350;BME280;2697;42.144;24.794;2023-05-02T07:58:33;157492.53;;;19.04;52.79
5350;BME280;2697;42.144;24.794;2023-05-02T08:00:59;157410.38;;;18.73;51.24
5350;BME280;2697;42.144;24.794;2023-05-02T08:03:24;157442.16;;;18.85;50.92
5350;BME280;2697;42.144;24.794;2023-05-02T08:05:51;157475.28;;;18.98;48.87
5350;BME280;2697;42.144;24.794;2023-05-02T08:08:16;157477.97;;;18.99;48.83
5350;BME280;2697;42.144;24.794;2023-05-02T08:10:42;157511.09;;;19.12;48.64
5350;BME280;2697;42.144;24.794;2023-05-02T08:13:07;157591.91;;;19.43;48.08
5350;BME280;2697;42.144;24.794;2023-05-02T08:15:32;157591.91;;;19.43;48.00
5350;BME280;2697;42.144;24.794;2023-05-02T08:17:58;157625.09;;;19.55;46.97
5350;BME280;2697;42.144;24.794;2023-05-02T08:20:23;157652.97;;;19.66;46.45
5350;BME280;2697;42.144;24.794;2023-05-02T08:22:49;157617.09;;;19.52;46.08
5350;BME280;2697;42.144;24.794;2023-05-02T08:25:15;157541.56;;;19.23;44.58
5350;BME280;2697;42.144;24.794;2023-05-02T08:27:40;157611.81;;;19.50;46.41
5350;BME280;2697;42.144;24.794;2023-05-02T08:30:06;157659.59;;;19.69;44.94
5350;BME280;2697;42.144;24.794;2023-05-02T08:32:32;157631.75;;;19.58;44.34
5350;BME280;2697;42.144;24.794;2023-05-02T08:34:58;157660.91;;;19.69;44.61
5350;BME280;2697;42.144;24.794;2023-05-02T08:37:23;157625.09;;;19.55;44.96
5350;BME280;2697;42.144;24.794;2023-05-02T08:39:48;157643.66;;;19.62;44.96
5350;BME280;2697;42.144;24.794;2023-05-02T08:42:14;157686.09;;;19.79;46.01
5350;BME280;2697;42.144;24.794;2023-05-02T08:44:40;157707.31;;;19.87;44.57
5350;BME280;2697;42.144;24.794;2023-05-02T08:47:06;157765.66;;;20.09;45.74
5350;BME280;2697;42.144;24.794;2023-05-02T08:49:34;157757.72;;;20.06;44.06
5350;BME280;2697;42.144;24.794;2023-05-02T08:52:01;157741.78;;;20.00;44.07
5350;BME280;2697;42.144;24.794;2023-05-02T08:54:27;157702.03;;;19.85;44.18
5350;BME280;2697;42.144;24.794;2023-05-02T08:56:53;157733.84;;;19.97;43.81
5350;BME280;2697;42.144;24.794;2023-05-02T08:59:19;157747.13;;;20.02;43.45
5350;BME280;2697;42.144;24.794;2023-05-02T09:01:48;157744.47;;;20.01;43.17
5350;BME280;2697;42.144;24.794;2023-05-02T09:04:13;157786.88;;;20.17;44.08
5350;BME280;2697;42.144;24.794;2023-05-02T09:06:39;157768.34;;;20.10;43.53
5350;BME280;2697;42.144;24.794;2023-05-02T09:09:05;157810.75;;;20.27;43.29
5350;BME280;2697;42.144;24.794;2023-05-02T09:11:31;157797.53;;;20.21;42.73
5350;BME280;2697;42.144;24.794;2023-05-02T09:13:56;157849.25;;;20.41;42.38
5350;BME280;2697;42.144;24.794;2023-05-02T09:16:28;157821.41;;;20.31;41.77
5350;BME280;2697;42.144;24.794;2023-05-02T09:18:55;157834.63;;;20.36;40.92
5350;BME280;2697;42.144;24.794;2023-05-02T09:21:26;157882.44;;;20.54;42.42
5350;BME280;2697;42.144;24.794;2023-05-02T09:23:58;157874.50;;;20.51;40.36
5350;BME280;2697;42.144;24.794;2023-05-02T09:26:25;157859.88;;;20.45;41.13
5350;BME280;2697;42.144;24.794;2023-05-02T09:28:59;157885.09;;;20.55;40.44
5350;BME280;2697;42.144;24.794;2023-05-02T09:31:34;157879.78;;;20.53;40.82
5350;BME280;2697;42.144;24.794;2023-05-02T09:34:11;157875.81;;;20.52;41.07
5350;BME280;2697;42.144;24.794;2023-05-02T09:36:41;157956.72;;;20.83;41.25
5350;BME280;2697;42.144;24.794;2023-05-02T09:39:12;157877.16;;;20.52;40.60
5350;BME280;2697;42.144;24.794;2023-05-02T09:41:45;157911.63;;;20.65;40.41
5350;BME280;2697;42.144;24.794;2023-05-02T09:44:16;157908.97;;;20.64;41.08
5350;BME280;2697;42.144;24.794;2023-05-02T09:46:55;157916.97;;;20.67;39.89
5350;BME280;2697;42.144;24.794;2023-05-02T09:49:45;157952.75;;;20.81;41.08
5350;BME280;2697;42.144;24.794;2023-05-02T09:52:15;157920.94;;;20.69;40.87
5350;BME280;2697;42.144;24.794;2023-05-02T09:54:40;157938.19;;;20.75;39.90
5350;BME280;2697;42.144;24.794;2023-05-02T09:57:06;157887.72;;;20.56;39.72
5350;BME280;2697;42.144;24.794;2023-05-02T09:59:32;157932.84;;;20.73;42.38
5350;BME280;2697;42.144;24.794;2023-05-02T10:01:59;157899.69;;;20.61;40.01
5350;BME280;2697;42.144;24.794;2023-05-02T10:04:25;157956.72;;;20.83;41.19
5350;BME280;2697;42.144;24.794;2023-05-02T10:06:53;158017.78;;;21.06;40.03
5350;BME280;2697;42.144;24.794;2023-05-02T10:09:19;158001.84;;;21.00;40.29
5350;BME280;2697;42.144;24.794;2023-05-02T10:11:46;157950.09;;;20.80;40.02
5350;BME280;2697;42.144;24.794;2023-05-02T10:14:15;157971.34;;;20.88;39.34
5350;BME280;2697;42.144;24.794;2023-05-02T10:19:56;157989.94;;;20.95;40.84
5350;BME280;2697;42.144;24.794;2023-05-02T10:22:23;158088.19;;;21.33;39.80
5350;BME280;2697;42.144;24.794;2023-05-02T10:24:52;158076.22;;;21.28;38.58
5350;BME280;2697;42.144;24.794;2023-05-02T10:27:18;157991.25;;;20.96;37.37
5350;BME280;2697;42.144;24.794;2023-05-02T10:29:44;158052.28;;;21.19;38.23
5350;BME280;2697;42.144;24.794;2023-05-02T10:32:12;158073.56;;;21.27;38.05
5350;BME280;2697;42.144;24.794;2023-05-02T10:34:39;158130.63;;;21.49;38.57
5350;BME280;2697;42.144;24.794;2023-05-02T10:37:05;158126.66;;;21.48;38.31
5350;BME280;2697;42.144;24.794;2023-05-02T10:39:31;158137.31;;;21.52;38.55
5350;BME280;2697;42.144;24.794;2023-05-02T10:41:58;158133.34;;;21.50;37.82
5350;BME280;2697;42.144;24.794;2023-05-02T10:46:59;158174.44;;;21.66;37.29
5350;BME280;2697;42.144;24.794;2023-05-02T10:49:25;158202.31;;;21.77;37.40
5350;BME280;2697;42.144;24.794;2023-05-02T10:51:52;158147.91;;;21.56;36.67
5350;BME280;2697;42.144;24.794;2023-05-02T10:54:23;158166.50;;;21.63;36.59
5350;BME280;2697;42.144;24.794;2023-05-02T11:01:56;158284.75;;;22.08;37.68
5350;BME280;2697;42.144;24.794;2023-05-02T11:04:22;158279.38;;;22.06;36.42
5350;BME280;2697;42.144;24.794;2023-05-02T11:11:54;158244.84;;;21.93;36.32
5350;BME280;2697;42.144;24.794;2023-05-02T11:24:49;158311.28;;;22.18;35.38
5350;BME280;2697;42.144;24.794;2023-05-02T11:27:40;158356.47;;;22.36;35.47
5350;BME280;2697;42.144;24.794;2023-05-02T11:30:09;158343.16;;;22.31;35.02
5350;BME280;2697;42.144;24.794;2023-05-02T11:37:54;158147.91;;;21.56;35.97
5350;BME280;2697;42.144;24.794;2023-05-02T11:40:20;158230.25;;;21.87;35.37
5350;BME280;2697;42.144;24.794;2023-05-02T11:42:46;158252.78;;;21.96;35.29
5350;BME280;2697;42.144;24.794;2023-05-02T11:45:11;158259.47;;;21.99;35.23
5350;BME280;2697;42.144;24.794;2023-05-02T11:47:37;158352.47;;;22.34;35.64
5350;BME280;2697;42.144;24.794;2023-05-02T11:50:04;158404.28;;;22.54;35.45
5350;BME280;2697;42.144;24.794;2023-05-02T11:52:29;158349.78;;;22.33;36.12
5350;BME280;2697;42.144;24.794;2023-05-02T11:54:56;158341.81;;;22.30;35.02
5350;BME280;2697;42.144;24.794;2023-05-02T11:57:22;158380.38;;;22.45;35.27
5350;BME280;2697;42.144;24.794;2023-05-02T11:59:51;158498.66;;;22.90;35.61
5350;BME280;2697;42.144;24.794;2023-05-02T12:02:17;158542.47;;;23.07;36.29
5350;BME280;2697;42.144;24.794;2023-05-02T12:04:42;158432.19;;;22.65;35.37
5350;BME280;2697;42.144;24.794;2023-05-02T12:07:11;158477.34;;;22.82;35.59
5350;BME280;2697;42.144;24.794;2023-05-02T12:09:52;158551.81;;;23.11;35.49
5350;BME280;2697;42.144;24.794;2023-05-02T12:12:20;158525.25;;;23.00;35.41
5350;BME280;2697;42.144;24.794;2023-05-02T12:14:45;158534.53;;;23.04;35.64
5350;BME280;2697;42.144;24.794;2023-05-02T12:17:10;158429.53;;;22.64;35.01
5350;BME280;2697;42.144;24.794;2023-05-02T12:19:44;158525.25;;;23.00;34.22
5350;BME280;2697;42.144;24.794;2023-05-02T12:22:10;158510.59;;;22.95;34.78
5350;BME280;2697;42.144;24.794;2023-05-02T12:24:37;158565.06;;;23.16;33.86
5350;BME280;2697;42.144;24.794;2023-05-02T12:27:13;158595.69;;;23.27;34.00
5350;BME280;2697;42.144;24.794;2023-05-02T12:29:47;158591.66;;;23.26;34.98
5350;BME280;2697;42.144;24.794;2023-05-02T12:32:13;158535.84;;;23.04;35.04
5350;BME280;2697;42.144;24.794;2023-05-02T12:34:39;158509.28;;;22.94;33.83
5350;BME280;2697;42.144;24.794;2023-05-02T12:37:06;158525.25;;;23.00;34.01
5350;BME280;2697;42.144;24.794;2023-05-02T12:39:36;158571.75;;;23.18;34.70
5350;BME280;2697;42.144;24.794;2023-05-02T12:42:12;158514.59;;;22.96;33.66
5350;BME280;2697;42.144;24.794;2023-05-02T12:44:40;158530.53;;;23.02;33.75
5350;BME280;2697;42.144;24.794;2023-05-02T12:47:06;158432.19;;;22.65;33.35
5350;BME280;2697;42.144;24.794;2023-05-02T12:49:32;158453.44;;;22.73;33.69
5350;BME280;2697;42.144;24.794;2023-05-02T12:52:12;158478.69;;;22.83;34.40
5350;BME280;2697;42.144;24.794;2023-05-02T12:54:37;158497.34;;;22.90;34.30
5350;BME280;2697;42.144;24.794;2023-05-02T12:57:02;158498.66;;;22.90;34.83
5350;BME280;2697;42.144;24.794;2023-05-02T12:59:31;158495.97;;;22.89;35.15
5350;BME280;2697;42.144;24.794;2023-05-02T13:01:58;158522.59;;;22.99;34.18
5350;BME280;2697;42.144;24.794;2023-05-02T13:04:39;158506.63;;;22.93;34.73
5350;BME280;2697;42.144;24.794;2023-05-02T13:07:06;158559.78;;;23.14;34.49
5350;BME280;2697;42.144;24.794;2023-05-02T13:09:32;158594.34;;;23.27;34.76
5350;BME280;2697;42.144;24.794;2023-05-02T13:11:57;158626.25;;;23.39;34.14
5350;BME280;2697;42.144;24.794;2023-05-02T13:14:24;158581.03;;;23.22;34.39
5350;BME280;2697;42.144;24.794;2023-05-02T13:16:49;158485.34;;;22.85;34.25
5350;BME280;2697;42.144;24.794;2023-05-02T13:19:18;158509.28;;;22.94;33.77
5350;BME280;2697;42.144;24.794;2023-05-02T13:21:43;158490.66;;;22.87;35.16
5350;BME280;2697;42.144;24.794;2023-05-02T13:24:08;158526.56;;;23.01;34.72
5350;BME280;2697;42.144;24.794;2023-05-02T13:26:34;158480.00;;;22.83;33.54
5350;BME280;2697;42.144;24.794;2023-05-02T13:29:00;158575.75;;;23.20;34.62
5350;BME280;2697;42.144;24.794;2023-05-02T13:31:25;158575.75;;;23.20;34.37
5350;BME280;2697;42.144;24.794;2023-05-02T13:33:50;158509.28;;;22.94;34.42
5350;BME280;2697;42.144;24.794;2023-05-02T13:36:16;158470.66;;;22.80;33.86
5350;BME280;2697;42.144;24.794;2023-05-02T13:38:41;158509.28;;;22.94;33.55
5350;BME280;2697;42.144;24.794;2023-05-02T13:41:07;158456.09;;;22.74;34.10
5350;BME280;2697;42.144;24.794;2023-05-02T13:43:32;158480.00;;;22.83;34.08
5350;BME280;2697;42.144;24.794;2023-05-02T13:45:57;158478.69;;;22.83;34.82
5350;BME280;2697;42.144;24.794;2023-05-02T13:48:23;158538.50;;;23.06;34.53
5350;BME280;2697;42.144;24.794;2023-05-02T13:50:49;158533.19;;;23.03;35.06